createdAt,value
2022-12-20T00:01:33.564Z,10.70
2022-12-20T00:05:42.007Z,11.00
2022-12-20T00:09:43.666Z,11.00
2022-12-20T00:13:46.386Z,11.00
2022-12-20T00:17:48.034Z,10.90
2022-12-20T00:21:49.756Z,10.90
2022-12-20T00:25:51.323Z,10.80
2022-12-20T00:29:52.928Z,10.70
2022-12-20T00:33:55.057Z,10.70
2022-12-20T00:37:56.659Z,10.60
2022-12-20T00:41:58.264Z,10.50
2022-12-20T00:46:00.150Z,10.50
2022-12-20T00:50:01.798Z,10.40
2022-12-20T00:54:03.410Z,10.40
2022-12-20T00:58:05.072Z,10.30
2022-12-20T01:02:06.872Z,10.20
2022-12-20T01:06:09.991Z,10.20
2022-12-20T01:10:11.946Z,10.20
2022-12-20T01:14:15.157Z,10.20
2022-12-20T01:18:16.776Z,10.20
2022-12-20T01:22:18.367Z,10.30
2022-12-20T01:26:22.198Z,10.30
2022-12-20T01:30:23.847Z,10.30
2022-12-20T01:34:25.468Z,10.20
2022-12-20T01:38:27.555Z,10.20
2022-12-20T01:42:32.024Z,10.20
2022-12-20T01:46:34.662Z,10.10
2022-12-20T01:50:36.618Z,10.20
2022-12-20T01:54:40.774Z,10.20
2022-12-20T01:58:42.620Z,10.20
2022-12-20T02:02:46.655Z,10.10
2022-12-20T02:06:48.338Z,10.10
2022-12-20T02:10:50.176Z,10.10
2022-12-20T02:15:17.333Z,10.20
2022-12-20T02:19:18.891Z,10.20
2022-12-20T02:23:39.603Z,10.20
2022-12-20T02:27:45.855Z,10.30
2022-12-20T02:31:56.058Z,10.20
2022-12-20T02:35:57.707Z,10.20
2022-12-20T02:39:59.441Z,10.30
2022-12-20T02:44:28.202Z,10.20
2022-12-20T02:48:31.019Z,10.20
2022-12-20T02:52:33.268Z,10.20
2022-12-20T02:56:50.506Z,10.20
2022-12-20T03:00:56.134Z,10.20
2022-12-20T03:04:58.614Z,10.10
2022-12-20T03:09:00.229Z,10.20
2022-12-20T03:13:01.824Z,10.20
2022-12-20T03:17:03.513Z,10.20
2022-12-20T03:21:05.264Z,10.20
2022-12-20T03:25:07.075Z,10.10
2022-12-20T03:29:08.700Z,10.20
2022-12-20T03:33:10.302Z,10.10
2022-12-20T03:37:11.996Z,10.20
2022-12-20T03:42:23.126Z,10.10
2022-12-20T03:46:25.729Z,10.10
2022-12-20T03:50:27.483Z,10.10
2022-12-20T03:54:29.053Z,10.10
2022-12-20T03:58:30.575Z,10.10
2022-12-20T04:02:32.335Z,10.10
2022-12-20T04:06:34.347Z,10.10
2022-12-20T04:10:58.886Z,10.10
2022-12-20T04:15:00.425Z,10.10
2022-12-20T04:19:02.179Z,10.10
2022-12-20T04:23:03.772Z,10.20
2022-12-20T04:27:25.750Z,10.20
2022-12-20T04:31:27.386Z,10.20
2022-12-20T04:35:29.050Z,10.10
2022-12-20T04:39:30.638Z,10.10
2022-12-20T04:43:32.299Z,10.10
2022-12-20T04:47:34.178Z,10.10
2022-12-20T04:51:35.704Z,10.10
2022-12-20T04:55:38.113Z,10.10
2022-12-20T04:59:39.709Z,10.20
2022-12-20T05:03:41.599Z,10.10
2022-12-20T05:07:43.932Z,10.10
2022-12-20T05:11:45.502Z,10.00
2022-12-20T05:15:50.736Z,10.10
2022-12-20T05:19:52.322Z,10.10
2022-12-20T05:24:12.914Z,10.00
2022-12-20T05:28:14.528Z,10.10
2022-12-20T05:32:16.164Z,10.10
2022-12-20T05:36:18.266Z,10.10
2022-12-20T05:40:19.879Z,10.10
2022-12-20T05:44:22.200Z,10.10
2022-12-20T05:48:23.825Z,10.10
2022-12-20T05:52:25.879Z,10.10
2022-12-20T05:56:27.804Z,10.10
2022-12-20T06:00:29.436Z,10.10
2022-12-20T06:04:32.594Z,10.10
2022-12-20T06:08:34.237Z,10.10
2022-12-20T06:12:35.839Z,10.20
2022-12-20T06:16:37.601Z,10.20
2022-12-20T06:20:39.576Z,10.30
2022-12-20T06:24:47.672Z,10.20
2022-12-20T06:28:54.497Z,10.30
2022-12-20T06:32:56.404Z,10.30
2022-12-20T06:37:00.969Z,10.30
2022-12-20T06:41:02.571Z,10.30
2022-12-20T06:45:04.616Z,10.40
2022-12-20T06:49:06.258Z,10.40
2022-12-20T06:53:07.881Z,10.30
2022-12-20T06:57:09.605Z,10.30
2022-12-20T07:01:11.319Z,10.30
2022-12-20T07:05:12.976Z,10.40
2022-12-20T07:09:14.611Z,10.40
2022-12-20T07:13:16.284Z,10.40
2022-12-20T07:17:17.885Z,10.40
2022-12-20T07:21:20.372Z,10.40
2022-12-20T07:25:22.153Z,10.40
2022-12-20T07:29:24.115Z,10.40
2022-12-20T07:33:27.737Z,10.40
2022-12-20T07:37:29.954Z,10.40
2022-12-20T07:41:31.553Z,10.40
2022-12-20T07:45:34.067Z,10.30
2022-12-20T07:49:37.029Z,10.30
2022-12-20T07:53:41.032Z,10.40
2022-12-20T07:57:48.625Z,10.40
2022-12-20T08:01:51.168Z,10.40
2022-12-20T08:05:58.253Z,10.40
2022-12-20T08:10:01.117Z,10.40
2022-12-20T08:14:04.363Z,10.50
2022-12-20T08:18:06.261Z,10.50
2022-12-20T08:22:07.953Z,10.50
2022-12-20T08:26:09.498Z,10.60
2022-12-20T08:30:11.433Z,10.60
2022-12-20T08:34:13.095Z,10.60
2022-12-20T08:38:14.847Z,10.60
2022-12-20T08:42:16.399Z,10.70
2022-12-20T08:46:18.036Z,10.70
2022-12-20T08:50:19.607Z,10.70
2022-12-20T08:54:21.301Z,10.80
2022-12-20T08:58:22.890Z,10.90
2022-12-20T09:02:24.632Z,10.90
2022-12-20T09:06:26.681Z,10.90
2022-12-20T09:10:28.304Z,11.00
2022-12-20T09:14:29.943Z,10.90
2022-12-20T09:18:31.713Z,11.00
2022-12-20T09:22:33.328Z,11.10
2022-12-20T09:26:35.361Z,11.10
2022-12-20T09:30:37.152Z,11.10
2022-12-20T09:34:39.399Z,11.30
2022-12-20T09:38:41.285Z,11.30
2022-12-20T09:42:42.826Z,11.40
2022-12-20T09:46:44.581Z,11.40
2022-12-20T09:50:55.357Z,11.60
2022-12-20T09:54:56.936Z,11.70
2022-12-20T09:58:58.566Z,11.80
2022-12-20T10:03:09.348Z,11.90
2022-12-20T10:07:31.388Z,12.00
2022-12-20T10:11:52.541Z,12.00
2022-12-20T10:15:58.539Z,12.10
2022-12-20T10:20:03.231Z,12.20
2022-12-20T10:24:18.366Z,12.30
2022-12-20T10:28:22.072Z,12.40
2022-12-20T10:32:24.020Z,12.50
2022-12-20T10:36:33.203Z,12.50
2022-12-20T10:41:10.180Z,12.50
2022-12-20T10:44:58.246Z,12.50
2022-12-20T10:49:19.798Z,12.50
2022-12-20T10:53:22.288Z,12.60
2022-12-20T10:57:31.738Z,12.60
2022-12-20T11:01:35.436Z,12.50
2022-12-20T11:05:37.280Z,12.60
2022-12-20T11:09:39.063Z,12.60
2022-12-20T11:13:41.393Z,12.60
2022-12-20T11:17:46.424Z,12.60
2022-12-20T11:21:54.636Z,12.50
2022-12-20T11:26:15.177Z,12.50
2022-12-20T11:30:26.836Z,12.50
2022-12-20T11:34:43.123Z,12.50
2022-12-20T11:38:59.236Z,12.50
2022-12-20T11:43:03.885Z,12.60
2022-12-20T11:47:08.590Z,12.60
2022-12-20T11:51:15.165Z,12.60
2022-12-20T11:55:26.431Z,12.60
2022-12-20T11:59:43.306Z,12.70
2022-12-20T12:03:51.137Z,12.80
2022-12-20T12:08:04.892Z,13.00
2022-12-20T12:12:08.152Z,13.20
2022-12-20T12:16:17.920Z,13.30
2022-12-20T12:20:25.980Z,13.30
2022-12-20T12:24:30.335Z,13.40
2022-12-20T12:28:33.122Z,13.40
2022-12-20T12:32:44.486Z,13.50
2022-12-20T12:36:46.155Z,13.70
2022-12-20T12:40:53.931Z,13.70
2022-12-20T12:45:01.785Z,13.70
2022-12-20T12:49:17.735Z,13.50
2022-12-20T12:53:22.069Z,13.50
2022-12-20T12:57:23.652Z,13.30
2022-12-20T13:01:44.321Z,13.20
2022-12-20T13:05:46.064Z,13.20
2022-12-20T13:09:48.085Z,13.20
2022-12-20T13:13:49.637Z,13.30
2022-12-20T13:17:58.645Z,13.30
2022-12-20T13:22:06.445Z,13.30
2022-12-20T13:26:27.951Z,13.30
2022-12-20T13:30:29.687Z,13.30
2022-12-20T13:34:50.371Z,13.30
2022-12-20T13:38:53.364Z,13.20
2022-12-20T13:42:56.910Z,13.10
2022-12-20T13:46:58.433Z,13.10
2022-12-20T13:51:00.175Z,13.10
2022-12-20T13:55:07.935Z,13.10
2022-12-20T13:59:19.593Z,13.00
2022-12-20T14:03:25.942Z,12.90
2022-12-20T14:07:28.800Z,12.80
2022-12-20T14:11:30.383Z,12.80
2022-12-20T14:15:33.060Z,12.90
2022-12-20T14:19:34.593Z,12.90
2022-12-20T14:23:38.022Z,12.90
2022-12-20T14:27:39.560Z,12.90
2022-12-20T14:31:42.803Z,12.90
2022-12-20T14:35:48.336Z,12.90
2022-12-20T14:39:56.113Z,12.90
2022-12-20T14:44:07.563Z,12.90
2022-12-20T14:48:16.395Z,12.80
2022-12-20T14:52:22.873Z,12.70
2022-12-20T14:56:31.496Z,12.60
2022-12-20T15:00:34.759Z,12.50
2022-12-20T15:04:36.631Z,12.50
2022-12-20T15:08:38.191Z,12.40
2022-12-20T15:12:42.420Z,12.30
2022-12-20T15:16:48.461Z,12.30
2022-12-20T15:20:58.235Z,12.20
2022-12-20T15:24:59.840Z,12.10
2022-12-20T15:29:01.519Z,12.10
2022-12-20T15:33:03.226Z,12.00
2022-12-20T15:37:06.223Z,12.00
2022-12-20T15:41:28.305Z,11.90
2022-12-20T15:45:29.934Z,11.80
2022-12-20T15:49:32.229Z,11.80
2022-12-20T15:53:34.457Z,11.80
2022-12-20T15:57:36.073Z,11.80
2022-12-20T16:01:40.664Z,11.70
2022-12-20T16:05:42.879Z,11.80
2022-12-20T16:09:44.556Z,11.70
2022-12-20T16:13:47.228Z,11.60
2022-12-20T16:17:48.853Z,11.60
2022-12-20T16:21:51.538Z,11.60
2022-12-20T16:25:53.171Z,11.50
2022-12-20T16:29:54.710Z,11.50
2022-12-20T16:33:57.029Z,11.50
2022-12-20T16:37:59.505Z,11.40
2022-12-20T16:42:01.679Z,11.40
2022-12-20T16:46:03.276Z,11.40
2022-12-20T16:50:05.771Z,11.40
2022-12-20T16:54:20.757Z,11.40
2022-12-20T16:58:38.573Z,11.40
2022-12-20T17:02:44.812Z,11.40
2022-12-20T17:06:46.765Z,11.40
2022-12-20T17:10:48.894Z,11.50
2022-12-20T17:14:50.674Z,11.40
2022-12-20T17:18:53.281Z,11.40
2022-12-20T17:27:14.554Z,11.40
2022-12-20T17:31:25.742Z,11.40
2022-12-20T17:35:31.267Z,11.40
2022-12-20T17:39:32.880Z,11.40
2022-12-20T17:43:34.507Z,11.40
2022-12-20T17:47:36.148Z,11.30
2022-12-20T17:51:37.881Z,11.40
2022-12-20T17:55:39.539Z,11.40
2022-12-20T17:59:42.264Z,11.40
2022-12-20T18:08:05.820Z,11.40
2022-12-20T18:12:08.222Z,11.40
2022-12-20T18:16:10.098Z,11.40
2022-12-20T18:20:11.910Z,11.50
2022-12-20T18:24:14.426Z,11.50
2022-12-20T18:28:16.065Z,11.50
2022-12-20T18:32:17.713Z,11.50
2022-12-20T18:36:20.716Z,11.50
2022-12-20T18:40:22.283Z,11.60
2022-12-20T18:44:27.921Z,11.50
2022-12-20T18:48:29.526Z,11.50
2022-12-20T18:52:31.350Z,11.50
2022-12-20T18:56:34.963Z,11.50
2022-12-20T19:00:36.562Z,11.50
2022-12-20T19:04:38.143Z,11.50
2022-12-20T19:08:41.070Z,11.50
2022-12-20T19:12:42.684Z,11.50
2022-12-20T19:16:44.315Z,11.50
2022-12-20T19:20:45.976Z,11.50
2022-12-20T19:24:47.563Z,11.50
2022-12-20T19:28:49.399Z,11.40
2022-12-20T19:32:51.073Z,11.40
2022-12-20T19:36:53.357Z,11.40
2022-12-20T19:40:54.934Z,11.40
2022-12-20T19:44:56.525Z,11.30
2022-12-20T19:48:58.928Z,11.30
2022-12-20T19:53:00.639Z,11.30
2022-12-20T19:57:02.236Z,11.30
2022-12-20T20:01:04.860Z,11.20
2022-12-20T20:05:12.850Z,11.20
2022-12-20T20:09:16.390Z,11.30
2022-12-20T20:13:18.016Z,11.30
2022-12-20T20:17:19.919Z,11.30
2022-12-20T20:21:22.580Z,11.30
2022-12-20T20:25:24.307Z,11.40
2022-12-20T20:29:25.860Z,11.40
2022-12-20T20:33:29.371Z,11.50
2022-12-20T20:37:31.016Z,11.60
2022-12-20T20:41:32.873Z,11.60
2022-12-20T20:45:34.485Z,11.60
2022-12-20T20:49:36.115Z,11.70
2022-12-20T20:53:37.801Z,11.70
2022-12-20T20:57:39.383Z,11.70
2022-12-20T21:01:41.032Z,11.70
2022-12-20T21:10:05.595Z,11.70
2022-12-20T21:14:07.260Z,11.70
2022-12-20T21:18:09.507Z,11.60
2022-12-20T21:22:11.210Z,11.60
2022-12-20T21:26:13.609Z,11.70
2022-12-20T21:30:15.356Z,11.70
2022-12-20T21:34:16.950Z,11.60
2022-12-20T21:38:18.500Z,11.60
2022-12-20T21:42:20.063Z,11.70
2022-12-20T21:46:21.760Z,11.60
2022-12-20T21:50:23.392Z,11.60
2022-12-20T21:54:25.117Z,11.60
2022-12-20T21:58:27.685Z,11.60
2022-12-20T22:02:29.350Z,11.60
2022-12-20T22:06:31.544Z,11.60
2022-12-20T22:10:33.291Z,11.60
2022-12-20T22:14:34.857Z,11.60
2022-12-20T22:18:36.737Z,11.60
2022-12-20T22:22:38.311Z,11.50
2022-12-20T22:26:41.083Z,11.60
2022-12-20T22:30:42.766Z,11.50
2022-12-20T22:34:44.373Z,11.60
2022-12-20T22:38:46.158Z,11.50
2022-12-20T22:42:47.770Z,11.60
2022-12-20T22:46:49.344Z,11.50
2022-12-20T22:50:57.998Z,11.50
2022-12-20T22:54:59.847Z,11.50
2022-12-20T22:59:01.703Z,11.50
2022-12-20T23:03:03.413Z,11.50
2022-12-20T23:07:05.183Z,11.50
2022-12-20T23:11:31.527Z,11.50
2022-12-20T23:15:42.008Z,11.50
2022-12-20T23:20:02.371Z,11.30
2022-12-20T23:24:04.031Z,11.30
2022-12-20T23:28:05.635Z,11.40
2022-12-20T23:32:07.632Z,11.40
2022-12-20T23:36:10.638Z,11.30
2022-12-20T23:40:13.013Z,11.30
2022-12-20T23:44:14.640Z,11.30
2022-12-20T23:48:17.589Z,11.20
2022-12-20T23:52:19.178Z,11.20
2022-12-20T23:56:21.430Z,11.30
